sensor_id;sensor_type;location;lat;lon;timestamp;P1;durP1;ratioP1;P2;durP2;ratioP2
7879;SDS011;3985;49.366;2.738;2023-01-29T00:02:02;43.33;;;43.00;;
7879;SDS011;3985;49.366;2.738;2023-01-29T00:04:30;48.33;;;44.67;;
7879;SDS011;3985;49.366;2.738;2023-01-29T00:06:59;43.67;;;43.00;;
7879;SDS011;3985;49.366;2.738;2023-01-29T00:09:27;43.67;;;42.00;;
7879;SDS011;3985;49.366;2.738;2023-01-29T00:11:56;46.33;;;42.33;;
7879;SDS011;3985;49.366;2.738;2023-01-29T00:14:23;58.67;;;47.00;;
7879;SDS011;3985;49.366;2.738;2023-01-29T00:16:51;38.33;;;36.33;;
7879;SDS011;3985;49.366;2.738;2023-01-29T00:19:19;52.67;;;48.33;;
7879;SDS011;3985;49.366;2.738;2023-01-29T00:21:47;52.33;;;47.33;;
7879;SDS011;3985;49.366;2.738;2023-01-29T00:24:16;42.00;;;40.67;;
7879;SDS011;3985;49.366;2.738;2023-01-29T00:26:44;44.67;;;43.67;;
7879;SDS011;3985;49.366;2.738;2023-01-29T00:29:14;41.00;;;39.67;;
7879;SDS011;3985;49.366;2.738;2023-01-29T00:31:43;52.33;;;45.67;;
7879;SDS011;3985;49.366;2.738;2023-01-29T00:34:10;55.33;;;50.67;;
7879;SDS011;3985;49.366;2.738;2023-01-29T00:36:38;40.67;;;40.00;;
7879;SDS011;3985;49.366;2.738;2023-01-29T00:39:08;47.33;;;44.67;;
7879;SDS011;3985;49.366;2.738;2023-01-29T00:41:37;46.67;;;45.00;;
7879;SDS011;3985;49.366;2.738;2023-01-29T00:44:22;37.33;;;37.33;;
7879;SDS011;3985;49.366;2.738;2023-01-29T00:47:07;49.67;;;45.33;;
7879;SDS011;3985;49.366;2.738;2023-01-29T00:49:54;48.67;;;46.00;;
7879;SDS011;3985;49.366;2.738;2023-01-29T00:52:22;55.67;;;46.67;;
7879;SDS011;3985;49.366;2.738;2023-01-29T00:54:50;58.67;;;50.33;;
7879;SDS011;3985;49.366;2.738;2023-01-29T00:57:19;59.00;;;50.00;;
7879;SDS011;3985;49.366;2.738;2023-01-29T00:59:47;42.00;;;40.67;;
7879;SDS011;3985;49.366;2.738;2023-01-29T01:02:15;49.67;;;46.67;;
7879;SDS011;3985;49.366;2.738;2023-01-29T01:04:59;59.33;;;48.00;;
7879;SDS011;3985;49.366;2.738;2023-01-29T01:07:27;55.67;;;49.33;;
7879;SDS011;3985;49.366;2.738;2023-01-29T01:09:55;60.33;;;50.33;;
7879;SDS011;3985;49.366;2.738;2023-01-29T01:12:41;52.00;;;47.00;;
7879;SDS011;3985;49.366;2.738;2023-01-29T01:15:09;49.67;;;45.00;;
7879;SDS011;3985;49.366;2.738;2023-01-29T01:17:37;44.67;;;41.67;;
7879;SDS011;3985;49.366;2.738;2023-01-29T01:20:04;45.67;;;43.33;;
7879;SDS011;3985;49.366;2.738;2023-01-29T01:22:33;64.00;;;54.33;;
7879;SDS011;3985;49.366;2.738;2023-01-29T01:25:01;49.33;;;45.00;;
7879;SDS011;3985;49.366;2.738;2023-01-29T01:27:28;52.67;;;48.00;;
7879;SDS011;3985;49.366;2.738;2023-01-29T01:29:58;34.67;;;34.67;;
7879;SDS011;3985;49.366;2.738;2023-01-29T01:32:25;56.67;;;46.67;;
7879;SDS011;3985;49.366;2.738;2023-01-29T01:34:53;62.67;;;52.00;;
7879;SDS011;3985;49.366;2.738;2023-01-29T01:37:20;55.00;;;48.00;;
7879;SDS011;3985;49.366;2.738;2023-01-29T01:39:49;56.67;;;48.00;;
7879;SDS011;3985;49.366;2.738;2023-01-29T01:42:21;66.25;;;55.50;;
7879;SDS011;3985;49.366;2.738;2023-01-29T01:44:54;50.00;;;45.00;;
7879;SDS011;3985;49.366;2.738;2023-01-29T01:47:30;63.00;;;50.00;;
7879;SDS011;3985;49.366;2.738;2023-01-29T01:50:04;61.00;;;53.00;;
7879;SDS011;3985;49.366;2.738;2023-01-29T01:52:34;62.25;;;53.00;;
7879;SDS011;3985;49.366;2.738;2023-01-29T01:55:04;49.25;;;45.75;;
7879;SDS011;3985;49.366;2.738;2023-01-29T01:57:33;44.33;;;43.00;;
7879;SDS011;3985;49.366;2.738;2023-01-29T02:00:04;55.50;;;47.50;;
7879;SDS011;3985;49.366;2.738;2023-01-29T02:02:37;54.67;;;50.33;;
7879;SDS011;3985;49.366;2.738;2023-01-29T02:05:23;59.25;;;50.75;;
7879;SDS011;3985;49.366;2.738;2023-01-29T02:08:08;63.75;;;54.50;;
7879;SDS011;3985;49.366;2.738;2023-01-29T02:10:53;68.50;;;58.25;;
7879;SDS011;3985;49.366;2.738;2023-01-29T02:13:21;56.75;;;49.50;;
7879;SDS011;3985;49.366;2.738;2023-01-29T02:15:50;61.50;;;52.25;;
7879;SDS011;3985;49.366;2.738;2023-01-29T02:18:19;54.50;;;49.00;;
7879;SDS011;3985;49.366;2.738;2023-01-29T02:20:48;64.75;;;51.50;;
7879;SDS011;3985;49.366;2.738;2023-01-29T02:23:42;60.50;;;53.00;;
7879;SDS011;3985;49.366;2.738;2023-01-29T02:29:15;66.75;;;55.00;;
7879;SDS011;3985;49.366;2.738;2023-01-29T02:31:51;63.75;;;52.75;;
7879;SDS011;3985;49.366;2.738;2023-01-29T02:34:26;59.75;;;52.00;;
7879;SDS011;3985;49.366;2.738;2023-01-29T02:37:16;48.33;;;45.67;;
7879;SDS011;3985;49.366;2.738;2023-01-29T02:39:44;60.50;;;52.50;;
7879;SDS011;3985;49.366;2.738;2023-01-29T02:42:18;57.00;;;50.00;;
7879;SDS011;3985;49.366;2.738;2023-01-29T02:44:54;51.00;;;47.00;;
7879;SDS011;3985;49.366;2.738;2023-01-29T02:47:28;59.50;;;50.25;;
7879;SDS011;3985;49.366;2.738;2023-01-29T02:49:59;65.00;;;55.50;;
7879;SDS011;3985;49.366;2.738;2023-01-29T02:52:32;55.50;;;49.00;;
7879;SDS011;3985;49.366;2.738;2023-01-29T02:55:03;58.00;;;49.75;;
7879;SDS011;3985;49.366;2.738;2023-01-29T02:57:35;51.00;;;46.75;;
7879;SDS011;3985;49.366;2.738;2023-01-29T03:00:08;64.25;;;54.00;;
7879;SDS011;3985;49.366;2.738;2023-01-29T03:02:41;61.25;;;52.75;;
7879;SDS011;3985;49.366;2.738;2023-01-29T03:05:12;63.25;;;52.00;;
7879;SDS011;3985;49.366;2.738;2023-01-29T03:07:44;54.00;;;47.75;;
7879;SDS011;3985;49.366;2.738;2023-01-29T03:10:16;56.25;;;50.75;;
7879;SDS011;3985;49.366;2.738;2023-01-29T03:12:48;66.25;;;53.75;;
7879;SDS011;3985;49.366;2.738;2023-01-29T03:15:21;54.50;;;45.75;;
7879;SDS011;3985;49.366;2.738;2023-01-29T03:17:53;58.25;;;50.25;;
7879;SDS011;3985;49.366;2.738;2023-01-29T03:20:25;62.75;;;52.50;;
7879;SDS011;3985;49.366;2.738;2023-01-29T03:22:57;57.75;;;51.00;;
7879;SDS011;3985;49.366;2.738;2023-01-29T03:25:27;56.00;;;48.00;;
7879;SDS011;3985;49.366;2.738;2023-01-29T03:28:12;68.25;;;57.75;;
7879;SDS011;3985;49.366;2.738;2023-01-29T03:31:02;67.75;;;56.75;;
7879;SDS011;3985;49.366;2.738;2023-01-29T03:33:49;52.50;;;48.00;;
7879;SDS011;3985;49.366;2.738;2023-01-29T03:36:18;52.00;;;45.25;;
7879;SDS011;3985;49.366;2.738;2023-01-29T03:38:48;60.75;;;52.50;;
7879;SDS011;3985;49.366;2.738;2023-01-29T03:41:19;65.75;;;52.75;;
7879;SDS011;3985;49.366;2.738;2023-01-29T03:43:50;61.75;;;53.00;;
7879;SDS011;3985;49.366;2.738;2023-01-29T03:46:24;43.00;;;40.75;;
7879;SDS011;3985;49.366;2.738;2023-01-29T03:48:57;63.75;;;52.00;;
7879;SDS011;3985;49.366;2.738;2023-01-29T03:51:27;55.50;;;50.00;;
7879;SDS011;3985;49.366;2.738;2023-01-29T03:54:01;61.00;;;52.50;;
7879;SDS011;3985;49.366;2.738;2023-01-29T03:56:36;53.25;;;48.25;;
7879;SDS011;3985;49.366;2.738;2023-01-29T03:59:13;57.00;;;47.25;;
7879;SDS011;3985;49.366;2.738;2023-01-29T04:01:49;49.50;;;45.00;;
7879;SDS011;3985;49.366;2.738;2023-01-29T04:04:20;67.00;;;57.00;;
7879;SDS011;3985;49.366;2.738;2023-01-29T04:06:49;60.00;;;48.25;;
7879;SDS011;3985;49.366;2.738;2023-01-29T04:09:18;50.75;;;45.50;;
7879;SDS011;3985;49.366;2.738;2023-01-29T04:11:51;58.00;;;50.50;;
7879;SDS011;3985;49.366;2.738;2023-01-29T04:14:21;70.50;;;57.50;;
7879;SDS011;3985;49.366;2.738;2023-01-29T04:16:52;46.25;;;42.75;;
7879;SDS011;3985;49.366;2.738;2023-01-29T04:19:22;51.25;;;44.25;;
7879;SDS011;3985;49.366;2.738;2023-01-29T04:21:51;42.75;;;42.25;;
7879;SDS011;3985;49.366;2.738;2023-01-29T04:24:22;45.25;;;44.75;;
7879;SDS011;3985;49.366;2.738;2023-01-29T04:26:54;43.75;;;43.00;;
7879;SDS011;3985;49.366;2.738;2023-01-29T04:29:34;61.25;;;51.50;;
7879;SDS011;3985;49.366;2.738;2023-01-29T04:32:13;48.75;;;45.50;;
7879;SDS011;3985;49.366;2.738;2023-01-29T04:34:48;58.25;;;51.00;;
7879;SDS011;3985;49.366;2.738;2023-01-29T04:37:26;50.50;;;43.75;;
7879;SDS011;3985;49.366;2.738;2023-01-29T04:39:59;60.00;;;51.00;;
7879;SDS011;3985;49.366;2.738;2023-01-29T04:42:33;65.50;;;53.25;;
7879;SDS011;3985;49.366;2.738;2023-01-29T04:45:07;55.75;;;47.50;;
7879;SDS011;3985;49.366;2.738;2023-01-29T04:47:45;50.75;;;48.00;;
7879;SDS011;3985;49.366;2.738;2023-01-29T04:50:15;61.75;;;51.25;;
7879;SDS011;3985;49.366;2.738;2023-01-29T04:52:48;61.50;;;52.25;;
7879;SDS011;3985;49.366;2.738;2023-01-29T04:55:19;51.50;;;47.75;;
7879;SDS011;3985;49.366;2.738;2023-01-29T04:57:54;57.50;;;49.75;;
7879;SDS011;3985;49.366;2.738;2023-01-29T05:00:28;52.25;;;48.25;;
7879;SDS011;3985;49.366;2.738;2023-01-29T05:02:59;66.25;;;52.25;;
7879;SDS011;3985;49.366;2.738;2023-01-29T05:05:27;51.75;;;46.25;;
7879;SDS011;3985;49.366;2.738;2023-01-29T05:07:56;66.00;;;50.25;;
7879;SDS011;3985;49.366;2.738;2023-01-29T05:10:24;57.50;;;50.50;;
7879;SDS011;3985;49.366;2.738;2023-01-29T05:12:53;54.00;;;49.00;;
7879;SDS011;3985;49.366;2.738;2023-01-29T05:15:27;61.25;;;51.00;;
7879;SDS011;3985;49.366;2.738;2023-01-29T05:18:00;58.50;;;49.50;;
7879;SDS011;3985;49.366;2.738;2023-01-29T05:20:29;51.75;;;46.25;;
7879;SDS011;3985;49.366;2.738;2023-01-29T05:22:58;52.50;;;48.75;;
7879;SDS011;3985;49.366;2.738;2023-01-29T05:25:26;53.25;;;48.75;;
7879;SDS011;3985;49.366;2.738;2023-01-29T05:27:55;53.25;;;47.50;;
7879;SDS011;3985;49.366;2.738;2023-01-29T05:30:32;51.00;;;48.00;;
7879;SDS011;3985;49.366;2.738;2023-01-29T05:33:02;51.75;;;46.25;;
7879;SDS011;3985;49.366;2.738;2023-01-29T05:35:37;48.25;;;44.50;;
7879;SDS011;3985;49.366;2.738;2023-01-29T05:38:04;49.00;;;43.75;;
7879;SDS011;3985;49.366;2.738;2023-01-29T05:40:32;63.75;;;54.25;;
7879;SDS011;3985;49.366;2.738;2023-01-29T05:43:00;46.50;;;44.75;;
7879;SDS011;3985;49.366;2.738;2023-01-29T05:45:27;45.25;;;42.00;;
7879;SDS011;3985;49.366;2.738;2023-01-29T05:47:55;53.00;;;45.75;;
7879;SDS011;3985;49.366;2.738;2023-01-29T05:50:25;53.75;;;47.50;;
7879;SDS011;3985;49.366;2.738;2023-01-29T05:52:56;46.25;;;43.00;;
7879;SDS011;3985;49.366;2.738;2023-01-29T05:55:24;53.75;;;47.00;;
7879;SDS011;3985;49.366;2.738;2023-01-29T05:57:53;61.25;;;49.50;;
7879;SDS011;3985;49.366;2.738;2023-01-29T06:00:21;50.50;;;47.00;;
7879;SDS011;3985;49.366;2.738;2023-01-29T06:02:48;64.25;;;52.00;;
7879;SDS011;3985;49.366;2.738;2023-01-29T06:05:16;61.50;;;51.75;;
7879;SDS011;3985;49.366;2.738;2023-01-29T06:07:46;44.00;;;41.75;;
7879;SDS011;3985;49.366;2.738;2023-01-29T06:10:16;58.00;;;48.75;;
7879;SDS011;3985;49.366;2.738;2023-01-29T06:12:44;58.75;;;50.00;;
7879;SDS011;3985;49.366;2.738;2023-01-29T06:15:12;65.25;;;52.50;;
7879;SDS011;3985;49.366;2.738;2023-01-29T06:17:40;56.75;;;50.25;;
7879;SDS011;3985;49.366;2.738;2023-01-29T06:20:09;60.75;;;50.00;;
7879;SDS011;3985;49.366;2.738;2023-01-29T06:22:37;58.75;;;48.50;;
7879;SDS011;3985;49.366;2.738;2023-01-29T06:25:09;55.00;;;49.50;;
7879;SDS011;3985;49.366;2.738;2023-01-29T06:27:36;57.75;;;49.75;;
7879;SDS011;3985;49.366;2.738;2023-01-29T06:30:04;53.00;;;46.25;;
7879;SDS011;3985;49.366;2.738;2023-01-29T06:32:34;62.25;;;52.25;;
7879;SDS011;3985;49.366;2.738;2023-01-29T06:35:07;48.25;;;45.00;;
7879;SDS011;3985;49.366;2.738;2023-01-29T06:37:34;62.75;;;53.50;;
7879;SDS011;3985;49.366;2.738;2023-01-29T06:40:02;48.25;;;45.25;;
7879;SDS011;3985;49.366;2.738;2023-01-29T06:42:33;61.50;;;52.75;;
7879;SDS011;3985;49.366;2.738;2023-01-29T06:45:01;61.50;;;51.25;;
7879;SDS011;3985;49.366;2.738;2023-01-29T06:47:28;60.75;;;51.00;;
7879;SDS011;3985;49.366;2.738;2023-01-29T06:49:56;61.25;;;53.25;;
7879;SDS011;3985;49.366;2.738;2023-01-29T06:52:24;51.50;;;45.00;;
7879;SDS011;3985;49.366;2.738;2023-01-29T06:54:53;53.75;;;47.50;;
7879;SDS011;3985;49.366;2.738;2023-01-29T06:57:20;55.25;;;48.50;;
7879;SDS011;3985;49.366;2.738;2023-01-29T06:59:49;40.25;;;40.00;;
7879;SDS011;3985;49.366;2.738;2023-01-29T07:02:17;62.25;;;51.00;;
7879;SDS011;3985;49.366;2.738;2023-01-29T07:04:44;56.25;;;49.75;;
7879;SDS011;3985;49.366;2.738;2023-01-29T07:07:12;47.00;;;45.00;;
7879;SDS011;3985;49.366;2.738;2023-01-29T07:09:39;50.75;;;46.75;;
7879;SDS011;3985;49.366;2.738;2023-01-29T07:12:10;56.50;;;50.50;;
7879;SDS011;3985;49.366;2.738;2023-01-29T07:14:37;60.50;;;50.50;;
7879;SDS011;3985;49.366;2.738;2023-01-29T07:17:09;66.75;;;53.50;;
7879;SDS011;3985;49.366;2.738;2023-01-29T07:19:36;56.25;;;49.00;;
7879;SDS011;3985;49.366;2.738;2023-01-29T07:22:04;61.25;;;51.25;;
7879;SDS011;3985;49.366;2.738;2023-01-29T07:24:31;58.50;;;50.50;;
7879;SDS011;3985;49.366;2.738;2023-01-29T07:26:59;54.50;;;49.00;;
7879;SDS011;3985;49.366;2.738;2023-01-29T07:29:26;54.00;;;45.00;;
7879;SDS011;3985;49.366;2.738;2023-01-29T07:31:54;63.25;;;53.75;;
7879;SDS011;3985;49.366;2.738;2023-01-29T07:34:23;57.50;;;50.50;;
7879;SDS011;3985;49.366;2.738;2023-01-29T07:36:51;51.25;;;46.25;;
7879;SDS011;3985;49.366;2.738;2023-01-29T07:39:20;54.75;;;48.50;;
7879;SDS011;3985;49.366;2.738;2023-01-29T07:41:48;57.50;;;50.50;;
7879;SDS011;3985;49.366;2.738;2023-01-29T07:44:15;67.00;;;54.25;;
7879;SDS011;3985;49.366;2.738;2023-01-29T07:46:43;61.50;;;53.50;;
7879;SDS011;3985;49.366;2.738;2023-01-29T07:49:11;59.00;;;51.50;;
7879;SDS011;3985;49.366;2.738;2023-01-29T07:51:40;59.25;;;51.25;;
7879;SDS011;3985;49.366;2.738;2023-01-29T07:54:07;62.00;;;53.50;;
7879;SDS011;3985;49.366;2.738;2023-01-29T07:56:35;74.00;;;62.50;;
7879;SDS011;3985;49.366;2.738;2023-01-29T07:59:02;56.50;;;50.25;;
7879;SDS011;3985;49.366;2.738;2023-01-29T08:01:30;62.75;;;53.50;;
7879;SDS011;3985;49.366;2.738;2023-01-29T08:03:57;65.00;;;54.25;;
7879;SDS011;3985;49.366;2.738;2023-01-29T08:06:24;62.50;;;51.50;;
7879;SDS011;3985;49.366;2.738;2023-01-29T08:08:53;64.50;;;54.75;;
7879;SDS011;3985;49.366;2.738;2023-01-29T08:11:21;68.75;;;58.00;;
7879;SDS011;3985;49.366;2.738;2023-01-29T08:13:49;63.50;;;54.25;;
7879;SDS011;3985;49.366;2.738;2023-01-29T08:16:16;62.75;;;54.50;;
7879;SDS011;3985;49.366;2.738;2023-01-29T08:18:44;75.75;;;61.00;;
7879;SDS011;3985;49.366;2.738;2023-01-29T08:21:13;68.00;;;58.50;;
7879;SDS011;3985;49.366;2.738;2023-01-29T08:23:40;72.00;;;60.00;;
7879;SDS011;3985;49.366;2.738;2023-01-29T08:26:12;69.00;;;57.75;;
7879;SDS011;3985;49.366;2.738;2023-01-29T08:28:43;72.00;;;59.25;;
7879;SDS011;3985;49.366;2.738;2023-01-29T08:31:13;80.00;;;65.00;;
7879;SDS011;3985;49.366;2.738;2023-01-29T08:33:41;73.50;;;60.25;;
7879;SDS011;3985;49.366;2.738;2023-01-29T08:36:08;66.75;;;55.50;;
7879;SDS011;3985;49.366;2.738;2023-01-29T08:38:36;73.50;;;61.50;;
7879;SDS011;3985;49.366;2.738;2023-01-29T08:41:04;74.75;;;63.50;;
7879;SDS011;3985;49.366;2.738;2023-01-29T08:43:33;67.00;;;54.75;;
7879;SDS011;3985;49.366;2.738;2023-01-29T08:46:02;77.00;;;63.25;;
7879;SDS011;3985;49.366;2.738;2023-01-29T08:48:29;82.75;;;65.25;;
7879;SDS011;3985;49.366;2.738;2023-01-29T08:50:57;81.00;;;67.75;;
7879;SDS011;3985;49.366;2.738;2023-01-29T08:53:25;74.75;;;61.00;;
7879;SDS011;3985;49.366;2.738;2023-01-29T08:55:52;83.50;;;67.50;;
7879;SDS011;3985;49.366;2.738;2023-01-29T08:58:20;78.75;;;65.50;;
7879;SDS011;3985;49.366;2.738;2023-01-29T09:00:49;75.25;;;63.25;;
7879;SDS011;3985;49.366;2.738;2023-01-29T09:03:17;79.25;;;64.50;;
7879;SDS011;3985;49.366;2.738;2023-01-29T09:05:44;85.75;;;69.25;;
7879;SDS011;3985;49.366;2.738;2023-01-29T09:08:12;89.25;;;70.75;;
7879;SDS011;3985;49.366;2.738;2023-01-29T09:10:39;92.50;;;72.50;;
7879;SDS011;3985;49.366;2.738;2023-01-29T09:13:07;86.50;;;68.75;;
7879;SDS011;3985;49.366;2.738;2023-01-29T09:15:34;72.75;;;61.75;;
7879;SDS011;3985;49.366;2.738;2023-01-29T09:18:04;68.00;;;57.25;;
7879;SDS011;3985;49.366;2.738;2023-01-29T09:20:31;75.50;;;62.75;;
7879;SDS011;3985;49.366;2.738;2023-01-29T09:23:02;82.33;;;66.00;;
7879;SDS011;3985;49.366;2.738;2023-01-29T09:25:30;71.33;;;57.33;;
7879;SDS011;3985;49.366;2.738;2023-01-29T09:27:58;69.33;;;58.00;;
7879;SDS011;3985;49.366;2.738;2023-01-29T09:30:25;74.00;;;57.33;;
7879;SDS011;3985;49.366;2.738;2023-01-29T09:32:53;72.67;;;58.67;;
7879;SDS011;3985;49.366;2.738;2023-01-29T09:35:22;68.00;;;51.00;;
7879;SDS011;3985;49.366;2.738;2023-01-29T09:37:50;71.00;;;61.00;;
7879;SDS011;3985;49.366;2.738;2023-01-29T09:40:22;81.67;;;58.33;;
7879;SDS011;3985;49.366;2.738;2023-01-29T09:42:53;81.67;;;66.33;;
7879;SDS011;3985;49.366;2.738;2023-01-29T09:45:23;76.67;;;61.67;;
7879;SDS011;3985;49.366;2.738;2023-01-29T09:47:54;75.67;;;61.67;;
7879;SDS011;3985;49.366;2.738;2023-01-29T09:50:27;75.67;;;61.33;;
7879;SDS011;3985;49.366;2.738;2023-01-29T09:52:57;62.33;;;53.67;;
7879;SDS011;3985;49.366;2.738;2023-01-29T09:55:27;63.00;;;53.00;;
7879;SDS011;3985;49.366;2.738;2023-01-29T09:57:56;69.33;;;55.00;;
7879;SDS011;3985;49.366;2.738;2023-01-29T10:00:27;63.33;;;52.33;;
7879;SDS011;3985;49.366;2.738;2023-01-29T10:03:03;71.00;;;57.00;;
7879;SDS011;3985;49.366;2.738;2023-01-29T10:05:45;72.67;;;58.67;;
7879;SDS011;3985;49.366;2.738;2023-01-29T10:08:29;79.00;;;58.00;;
7879;SDS011;3985;49.366;2.738;2023-01-29T10:11:09;87.33;;;62.00;;
7879;SDS011;3985;49.366;2.738;2023-01-29T10:13:46;59.67;;;51.67;;
7879;SDS011;3985;49.366;2.738;2023-01-29T10:16:22;68.67;;;54.00;;
7879;SDS011;3985;49.366;2.738;2023-01-29T10:19:08;70.67;;;58.00;;
7879;SDS011;3985;49.366;2.738;2023-01-29T10:21:58;62.00;;;51.67;;
7879;SDS011;3985;49.366;2.738;2023-01-29T10:24:49;66.67;;;54.33;;
7879;SDS011;3985;49.366;2.738;2023-01-29T10:27:19;66.67;;;53.33;;
7879;SDS011;3985;49.366;2.738;2023-01-29T10:29:48;58.67;;;49.33;;
7879;SDS011;3985;49.366;2.738;2023-01-29T10:32:17;68.67;;;55.00;;
7879;SDS011;3985;49.366;2.738;2023-01-29T10:34:47;70.33;;;55.33;;
7879;SDS011;3985;49.366;2.738;2023-01-29T10:37:19;69.00;;;53.67;;
7879;SDS011;3985;49.366;2.738;2023-01-29T10:39:49;60.00;;;48.33;;
7879;SDS011;3985;49.366;2.738;2023-01-29T10:42:18;64.00;;;55.00;;
7879;SDS011;3985;49.366;2.738;2023-01-29T10:44:53;70.00;;;55.33;;
7879;SDS011;3985;49.366;2.738;2023-01-29T10:47:36;70.00;;;53.00;;
7879;SDS011;3985;49.366;2.738;2023-01-29T10:50:17;69.33;;;56.00;;
7879;SDS011;3985;49.366;2.738;2023-01-29T10:52:57;67.33;;;52.00;;
7879;SDS011;3985;49.366;2.738;2023-01-29T10:55:45;66.00;;;53.00;;
7879;SDS011;3985;49.366;2.738;2023-01-29T10:58:25;53.33;;;45.00;;
7879;SDS011;3985;49.366;2.738;2023-01-29T11:00:59;67.00;;;53.67;;
7879;SDS011;3985;49.366;2.738;2023-01-29T11:03:28;69.67;;;54.67;;
7879;SDS011;3985;49.366;2.738;2023-01-29T11:06:01;70.67;;;57.67;;
7879;SDS011;3985;49.366;2.738;2023-01-29T11:08:39;72.33;;;56.00;;
7879;SDS011;3985;49.366;2.738;2023-01-29T11:11:13;65.00;;;52.67;;
7879;SDS011;3985;49.366;2.738;2023-01-29T11:13:44;66.00;;;55.67;;
7879;SDS011;3985;49.366;2.738;2023-01-29T11:16:14;64.67;;;51.33;;
7879;SDS011;3985;49.366;2.738;2023-01-29T11:18:55;65.00;;;52.33;;
7879;SDS011;3985;49.366;2.738;2023-01-29T11:21:24;64.67;;;54.33;;
7879;SDS011;3985;49.366;2.738;2023-01-29T11:24:05;63.67;;;51.67;;
7879;SDS011;3985;49.366;2.738;2023-01-29T11:26:37;67.00;;;52.50;;
7879;SDS011;3985;49.366;2.738;2023-01-29T11:32:03;68.67;;;52.33;;
7879;SDS011;3985;49.366;2.738;2023-01-29T11:34:32;60.33;;;50.00;;
7879;SDS011;3985;49.366;2.738;2023-01-29T11:37:01;61.33;;;50.33;;
7879;SDS011;3985;49.366;2.738;2023-01-29T11:39:30;67.00;;;48.33;;
7879;SDS011;3985;49.366;2.738;2023-01-29T11:41:58;67.67;;;52.00;;
7879;SDS011;3985;49.366;2.738;2023-01-29T11:44:28;64.67;;;54.33;;
7879;SDS011;3985;49.366;2.738;2023-01-29T11:47:09;64.25;;;48.75;;
7879;SDS011;3985;49.366;2.738;2023-01-29T11:49:45;63.25;;;51.50;;
7879;SDS011;3985;49.366;2.738;2023-01-29T11:52:15;56.75;;;48.50;;
7879;SDS011;3985;49.366;2.738;2023-01-29T11:54:46;59.75;;;47.75;;
7879;SDS011;3985;49.366;2.738;2023-01-29T11:57:20;65.50;;;51.25;;
7879;SDS011;3985;49.366;2.738;2023-01-29T11:59:52;62.75;;;50.00;;
7879;SDS011;3985;49.366;2.738;2023-01-29T12:02:23;61.50;;;49.00;;
7879;SDS011;3985;49.366;2.738;2023-01-29T12:04:55;58.75;;;49.50;;
7879;SDS011;3985;49.366;2.738;2023-01-29T12:07:24;58.00;;;48.25;;
7879;SDS011;3985;49.366;2.738;2023-01-29T12:09:54;60.25;;;48.50;;
7879;SDS011;3985;49.366;2.738;2023-01-29T12:12:30;54.75;;;45.00;;
7879;SDS011;3985;49.366;2.738;2023-01-29T12:15:01;52.75;;;46.00;;
7879;SDS011;3985;49.366;2.738;2023-01-29T12:17:30;56.25;;;45.75;;
7879;SDS011;3985;49.366;2.738;2023-01-29T12:20:03;60.25;;;48.50;;
7879;SDS011;3985;49.366;2.738;2023-01-29T12:22:38;59.50;;;48.00;;
7879;SDS011;3985;49.366;2.738;2023-01-29T12:25:15;59.75;;;48.00;;
7879;SDS011;3985;49.366;2.738;2023-01-29T12:27:47;61.25;;;47.75;;
7879;SDS011;3985;49.366;2.738;2023-01-29T12:30:20;63.00;;;52.25;;
7879;SDS011;3985;49.366;2.738;2023-01-29T12:32:54;67.00;;;51.00;;
7879;SDS011;3985;49.366;2.738;2023-01-29T12:38:28;59.75;;;50.50;;
7879;SDS011;3985;49.366;2.738;2023-01-29T12:40:57;60.00;;;49.25;;
7879;SDS011;3985;49.366;2.738;2023-01-29T12:43:32;61.50;;;50.00;;
7879;SDS011;3985;49.366;2.738;2023-01-29T12:46:05;55.50;;;43.25;;
7879;SDS011;3985;49.366;2.738;2023-01-29T12:48:36;60.50;;;48.75;;
7879;SDS011;3985;49.366;2.738;2023-01-29T12:51:06;59.00;;;47.75;;
7879;SDS011;3985;49.366;2.738;2023-01-29T12:53:36;57.00;;;48.00;;
7879;SDS011;3985;49.366;2.738;2023-01-29T12:56:12;59.00;;;47.75;;
7879;SDS011;3985;49.366;2.738;2023-01-29T12:58:42;60.75;;;47.50;;
7879;SDS011;3985;49.366;2.738;2023-01-29T13:01:13;59.00;;;47.75;;
7879;SDS011;3985;49.366;2.738;2023-01-29T13:03:44;54.00;;;47.00;;
7879;SDS011;3985;49.366;2.738;2023-01-29T13:06:15;58.50;;;47.00;;
7879;SDS011;3985;49.366;2.738;2023-01-29T13:08:45;64.50;;;52.75;;
7879;SDS011;3985;49.366;2.738;2023-01-29T13:11:20;59.25;;;50.50;;
7879;SDS011;3985;49.366;2.738;2023-01-29T13:13:50;56.50;;;47.00;;
7879;SDS011;3985;49.366;2.738;2023-01-29T13:16:21;62.00;;;51.75;;
7879;SDS011;3985;49.366;2.738;2023-01-29T13:18:52;55.25;;;43.50;;
7879;SDS011;3985;49.366;2.738;2023-01-29T13:21:22;56.50;;;46.75;;
7879;SDS011;3985;49.366;2.738;2023-01-29T13:23:52;51.00;;;42.50;;
7879;SDS011;3985;49.366;2.738;2023-01-29T13:26:24;52.75;;;43.25;;
7879;SDS011;3985;49.366;2.738;2023-01-29T13:28:53;48.00;;;40.75;;
7879;SDS011;3985;49.366;2.738;2023-01-29T13:31:26;47.75;;;41.75;;
7879;SDS011;3985;49.366;2.738;2023-01-29T13:33:58;45.25;;;41.25;;
7879;SDS011;3985;49.366;2.738;2023-01-29T13:36:31;47.50;;;38.00;;
7879;SDS011;3985;49.366;2.738;2023-01-29T13:39:00;47.25;;;40.75;;
7879;SDS011;3985;49.366;2.738;2023-01-29T13:41:32;48.00;;;40.50;;
7879;SDS011;3985;49.366;2.738;2023-01-29T13:44:00;52.75;;;42.25;;
7879;SDS011;3985;49.366;2.738;2023-01-29T13:46:28;49.00;;;41.00;;
7879;SDS011;3985;49.366;2.738;2023-01-29T13:48:58;34.75;;;34.75;;
7879;SDS011;3985;49.366;2.738;2023-01-29T13:51:30;42.25;;;35.00;;
7879;SDS011;3985;49.366;2.738;2023-01-29T13:54:01;40.50;;;37.25;;
7879;SDS011;3985;49.366;2.738;2023-01-29T13:56:43;41.50;;;37.00;;
7879;SDS011;3985;49.366;2.738;2023-01-29T13:59:21;49.00;;;39.50;;
7879;SDS011;3985;49.366;2.738;2023-01-29T14:01:59;41.25;;;37.50;;
7879;SDS011;3985;49.366;2.738;2023-01-29T14:04:29;42.50;;;39.25;;
7879;SDS011;3985;49.366;2.738;2023-01-29T14:06:58;38.25;;;37.00;;
7879;SDS011;3985;49.366;2.738;2023-01-29T14:18:59;51.75;;;43.75;;
7879;SDS011;3985;49.366;2.738;2023-01-29T14:21:27;47.25;;;39.75;;
7879;SDS011;3985;49.366;2.738;2023-01-29T14:23:57;44.75;;;37.00;;
7879;SDS011;3985;49.366;2.738;2023-01-29T14:26:33;40.25;;;33.00;;
7879;SDS011;3985;49.366;2.738;2023-01-29T14:29:17;26.75;;;25.25;;
7879;SDS011;3985;49.366;2.738;2023-01-29T14:31:49;37.25;;;31.25;;
7879;SDS011;3985;49.366;2.738;2023-01-29T14:34:20;36.00;;;27.50;;
7879;SDS011;3985;49.366;2.738;2023-01-29T14:36:51;31.00;;;26.50;;
7879;SDS011;3985;49.366;2.738;2023-01-29T14:39:28;24.75;;;22.25;;
7879;SDS011;3985;49.366;2.738;2023-01-29T14:41:58;34.25;;;29.00;;
7879;SDS011;3985;49.366;2.738;2023-01-29T14:44:55;36.25;;;28.00;;
7879;SDS011;3985;49.366;2.738;2023-01-29T14:53:09;24.00;;;20.75;;
7879;SDS011;3985;49.366;2.738;2023-01-29T14:55:41;25.75;;;24.25;;
7879;SDS011;3985;49.366;2.738;2023-01-29T14:58:11;18.50;;;18.50;;
7879;SDS011;3985;49.366;2.738;2023-01-29T15:00:43;8.75;;;7.50;;
7879;SDS011;3985;49.366;2.738;2023-01-29T15:03:12;23.00;;;20.75;;
7879;SDS011;3985;49.366;2.738;2023-01-29T15:05:42;14.75;;;14.75;;
7879;SDS011;3985;49.366;2.738;2023-01-29T15:08:12;22.25;;;17.25;;
7879;SDS011;3985;49.366;2.738;2023-01-29T15:10:44;21.00;;;17.75;;
7879;SDS011;3985;49.366;2.738;2023-01-29T15:13:37;21.00;;;17.50;;
7879;SDS011;3985;49.366;2.738;2023-01-29T15:16:12;21.75;;;20.00;;
7879;SDS011;3985;49.366;2.738;2023-01-29T15:18:42;19.50;;;18.75;;
7879;SDS011;3985;49.366;2.738;2023-01-29T15:21:11;17.75;;;17.75;;
7879;SDS011;3985;49.366;2.738;2023-01-29T15:23:39;13.50;;;13.50;;
7879;SDS011;3985;49.366;2.738;2023-01-29T15:26:08;19.00;;;18.75;;
7879;SDS011;3985;49.366;2.738;2023-01-29T15:28:40;22.50;;;20.75;;
7879;SDS011;3985;49.366;2.738;2023-01-29T15:31:10;22.75;;;17.75;;
7879;SDS011;3985;49.366;2.738;2023-01-29T15:33:41;21.75;;;16.75;;
7879;SDS011;3985;49.366;2.738;2023-01-29T15:36:15;22.25;;;18.50;;
7879;SDS011;3985;49.366;2.738;2023-01-29T15:38:45;13.00;;;13.00;;